Mansfield, Indiana
Current Conditions -  °F | °C
As of 12:35 PM on Friday 24 Oct 2014 (Local Time) from K4I7 Reporting Station
Clear Clear  
Wind Chill: 59°   Ceiling: Unl
Heat Index: 59°   Visibility: 10mi
Dew Point: 46°   Wind: 3mph
Humidity: 63%   Direction: 250°WSW
Pressure: 30.11"   Gusts: NA
Location:  39.7714°N, 87.1705°W
Report Text: K4I7 241635Z AUTO 25003KT 10SM CLR 15/08 A3011 RMK AO2
Loading
Personal Weather Stations






























Interactive Weather Map
Tropical Storm Tracking
New forecast layout! Learn more

10-Day Weather Forecast

Advertisements
Track Severe Weather on mobile